sensor_id;sensor_type;location;lat;lon;timestamp;temperature;humidity
16929;DHT22;8581;47.334;11.190;2023-11-19T00:00:27;2.60;99.90
16929;DHT22;8581;47.334;11.190;2023-11-19T00:02:59;2.50;99.90
16929;DHT22;8581;47.334;11.190;2023-11-19T00:05:30;2.50;99.90
16929;DHT22;8581;47.334;11.190;2023-11-19T00:08:02;2.30;99.90
16929;DHT22;8581;47.334;11.190;2023-11-19T00:10:33;2.30;99.90
16929;DHT22;8581;47.334;11.190;2023-11-19T00:13:05;2.30;99.90
16929;DHT22;8581;47.334;11.190;2023-11-19T00:15:37;2.40;99.90
16929;DHT22;8581;47.334;11.190;2023-11-19T00:18:08;2.40;99.90
16929;DHT22;8581;47.334;11.190;2023-11-19T00:20:40;2.40;99.90
16929;DHT22;8581;47.334;11.190;2023-11-19T00:23:11;2.30;99.90
16929;DHT22;8581;47.334;11.190;2023-11-19T00:25:43;2.40;99.90
16929;DHT22;8581;47.334;11.190;2023-11-19T00:28:15;2.40;99.90
16929;DHT22;8581;47.334;11.190;2023-11-19T00:30:46;2.40;99.90
16929;DHT22;8581;47.334;11.190;2023-11-19T00:33:18;2.50;99.90
16929;DHT22;8581;47.334;11.190;2023-11-19T00:35:49;2.50;99.90
16929;DHT22;8581;47.334;11.190;2023-11-19T00:38:21;2.50;99.90
16929;DHT22;8581;47.334;11.190;2023-11-19T00:40:53;2.40;99.90
16929;DHT22;8581;47.334;11.190;2023-11-19T00:43:24;2.40;99.90
16929;DHT22;8581;47.334;11.190;2023-11-19T00:45:56;2.40;99.90
16929;DHT22;8581;47.334;11.190;2023-11-19T00:48:27;2.50;99.90
16929;DHT22;8581;47.334;11.190;2023-11-19T00:50:59;2.60;99.90
16929;DHT22;8581;47.334;11.190;2023-11-19T00:53:31;2.60;99.90
16929;DHT22;8581;47.334;11.190;2023-11-19T00:56:02;2.70;99.90
16929;DHT22;8581;47.334;11.190;2023-11-19T00:58:34;2.60;99.90
16929;DHT22;8581;47.334;11.190;2023-11-19T01:01:06;2.60;99.90
16929;DHT22;8581;47.334;11.190;2023-11-19T01:03:37;2.60;99.90
16929;DHT22;8581;47.334;11.190;2023-11-19T01:06:09;2.70;99.90
16929;DHT22;8581;47.334;11.190;2023-11-19T01:08:42;2.60;99.90
16929;DHT22;8581;47.334;11.190;2023-11-19T01:11:21;2.50;99.90
16929;DHT22;8581;47.334;11.190;2023-11-19T01:13:53;2.50;99.90
16929;DHT22;8581;47.334;11.190;2023-11-19T01:16:25;2.50;99.90
16929;DHT22;8581;47.334;11.190;2023-11-19T01:18:56;2.50;99.90
16929;DHT22;8581;47.334;11.190;2023-11-19T01:21:27;2.60;99.90
16929;DHT22;8581;47.334;11.190;2023-11-19T01:23:59;2.60;99.90
16929;DHT22;8581;47.334;11.190;2023-11-19T01:26:31;2.60;99.90
16929;DHT22;8581;47.334;11.190;2023-11-19T01:29:02;2.60;99.90
16929;DHT22;8581;47.334;11.190;2023-11-19T01:31:34;2.60;99.90
16929;DHT22;8581;47.334;11.190;2023-11-19T01:34:05;2.60;99.90
16929;DHT22;8581;47.334;11.190;2023-11-19T01:36:38;2.80;99.90
16929;DHT22;8581;47.334;11.190;2023-11-19T01:39:09;2.60;99.90
16929;DHT22;8581;47.334;11.190;2023-11-19T01:41:40;2.60;99.90
16929;DHT22;8581;47.334;11.190;2023-11-19T01:44:12;2.70;99.90
16929;DHT22;8581;47.334;11.190;2023-11-19T01:46:44;2.60;99.90
16929;DHT22;8581;47.334;11.190;2023-11-19T01:49:15;2.50;99.90
16929;DHT22;8581;47.334;11.190;2023-11-19T01:51:46;2.50;99.90
16929;DHT22;8581;47.334;11.190;2023-11-19T01:54:18;2.50;99.90
16929;DHT22;8581;47.334;11.190;2023-11-19T01:56:50;2.50;99.90
16929;DHT22;8581;47.334;11.190;2023-11-19T01:59:21;2.50;99.90
16929;DHT22;8581;47.334;11.190;2023-11-19T02:01:54;2.50;99.90
16929;DHT22;8581;47.334;11.190;2023-11-19T02:04:24;2.60;99.90
16929;DHT22;8581;47.334;11.190;2023-11-19T02:06:56;2.60;99.90
16929;DHT22;8581;47.334;11.190;2023-11-19T02:09:28;2.70;99.90
16929;DHT22;8581;47.334;11.190;2023-11-19T02:11:59;2.60;99.90
16929;DHT22;8581;47.334;11.190;2023-11-19T02:14:31;2.50;99.90
16929;DHT22;8581;47.334;11.190;2023-11-19T02:17:03;2.40;99.90
16929;DHT22;8581;47.334;11.190;2023-11-19T02:19:34;2.40;99.90
16929;DHT22;8581;47.334;11.190;2023-11-19T02:22:06;2.40;99.90
16929;DHT22;8581;47.334;11.190;2023-11-19T02:24:37;2.40;99.90
16929;DHT22;8581;47.334;11.190;2023-11-19T02:27:10;2.30;99.90
16929;DHT22;8581;47.334;11.190;2023-11-19T02:29:41;2.40;99.90
16929;DHT22;8581;47.334;11.190;2023-11-19T02:32:12;2.30;99.90
16929;DHT22;8581;47.334;11.190;2023-11-19T02:34:44;2.30;99.90
16929;DHT22;8581;47.334;11.190;2023-11-19T02:37:16;2.50;99.90
16929;DHT22;8581;47.334;11.190;2023-11-19T02:39:48;2.50;99.90
16929;DHT22;8581;47.334;11.190;2023-11-19T02:42:19;2.70;99.90
16929;DHT22;8581;47.334;11.190;2023-11-19T02:44:51;2.50;99.90
16929;DHT22;8581;47.334;11.190;2023-11-19T02:47:22;2.60;99.90
16929;DHT22;8581;47.334;11.190;2023-11-19T02:49:54;2.60;99.90
16929;DHT22;8581;47.334;11.190;2023-11-19T02:52:26;2.60;99.90
16929;DHT22;8581;47.334;11.190;2023-11-19T02:54:57;2.60;99.90
16929;DHT22;8581;47.334;11.190;2023-11-19T02:57:32;2.60;99.90
16929;DHT22;8581;47.334;11.190;2023-11-19T03:00:04;2.60;99.90
16929;DHT22;8581;47.334;11.190;2023-11-19T03:02:36;2.50;99.90
16929;DHT22;8581;47.334;11.190;2023-11-19T03:05:08;2.50;99.90
16929;DHT22;8581;47.334;11.190;2023-11-19T03:07:40;2.70;99.90
16929;DHT22;8581;47.334;11.190;2023-11-19T03:10:11;2.60;99.90
16929;DHT22;8581;47.334;11.190;2023-11-19T03:12:43;2.50;99.90
16929;DHT22;8581;47.334;11.190;2023-11-19T03:15:15;2.40;99.90
16929;DHT22;8581;47.334;11.190;2023-11-19T03:17:46;2.50;99.90
16929;DHT22;8581;47.334;11.190;2023-11-19T03:20:18;2.80;99.90
16929;DHT22;8581;47.334;11.190;2023-11-19T03:22:50;2.70;99.90
16929;DHT22;8581;47.334;11.190;2023-11-19T03:25:21;2.60;99.90
16929;DHT22;8581;47.334;11.190;2023-11-19T03:27:53;2.60;99.90
16929;DHT22;8581;47.334;11.190;2023-11-19T03:30:24;2.60;99.90
16929;DHT22;8581;47.334;11.190;2023-11-19T03:32:56;2.70;99.90
16929;DHT22;8581;47.334;11.190;2023-11-19T03:35:28;2.80;99.90
16929;DHT22;8581;47.334;11.190;2023-11-19T03:37:59;2.80;99.90
16929;DHT22;8581;47.334;11.190;2023-11-19T03:40:31;2.70;99.90
16929;DHT22;8581;47.334;11.190;2023-11-19T03:43:02;2.70;99.90
16929;DHT22;8581;47.334;11.190;2023-11-19T03:45:34;2.60;99.90
16929;DHT22;8581;47.334;11.190;2023-11-19T03:48:06;2.80;99.90
16929;DHT22;8581;47.334;11.190;2023-11-19T03:50:37;2.70;99.90
16929;DHT22;8581;47.334;11.190;2023-11-19T03:53:09;2.70;99.90
16929;DHT22;8581;47.334;11.190;2023-11-19T03:55:40;2.70;99.90
16929;DHT22;8581;47.334;11.190;2023-11-19T03:58:12;2.70;99.90
16929;DHT22;8581;47.334;11.190;2023-11-19T04:00:44;2.70;99.90
16929;DHT22;8581;47.334;11.190;2023-11-19T04:03:15;2.80;99.90
16929;DHT22;8581;47.334;11.190;2023-11-19T04:05:47;3.10;99.90
16929;DHT22;8581;47.334;11.190;2023-11-19T04:08:18;2.90;99.90
16929;DHT22;8581;47.334;11.190;2023-11-19T04:10:50;2.90;99.90
16929;DHT22;8581;47.334;11.190;2023-11-19T04:13:22;2.70;99.90
16929;DHT22;8581;47.334;11.190;2023-11-19T04:15:53;2.70;99.90
16929;DHT22;8581;47.334;11.190;2023-11-19T04:18:25;2.70;99.90
16929;DHT22;8581;47.334;11.190;2023-11-19T04:20:56;2.70;99.90
16929;DHT22;8581;47.334;11.190;2023-11-19T04:23:28;2.90;99.90
16929;DHT22;8581;47.334;11.190;2023-11-19T04:26:03;2.70;99.90
16929;DHT22;8581;47.334;11.190;2023-11-19T04:28:34;2.60;99.90
16929;DHT22;8581;47.334;11.190;2023-11-19T04:31:06;2.80;99.90
16929;DHT22;8581;47.334;11.190;2023-11-19T04:33:38;2.90;99.90
16929;DHT22;8581;47.334;11.190;2023-11-19T04:36:10;2.70;99.90
16929;DHT22;8581;47.334;11.190;2023-11-19T04:38:41;2.70;99.90
16929;DHT22;8581;47.334;11.190;2023-11-19T04:41:13;2.60;99.90
16929;DHT22;8581;47.334;11.190;2023-11-19T04:43:44;2.70;99.90
16929;DHT22;8581;47.334;11.190;2023-11-19T04:46:16;2.60;99.90
16929;DHT22;8581;47.334;11.190;2023-11-19T04:48:48;2.60;99.90
16929;DHT22;8581;47.334;11.190;2023-11-19T04:51:19;2.70;99.90
16929;DHT22;8581;47.334;11.190;2023-11-19T04:53:51;2.60;99.90
16929;DHT22;8581;47.334;11.190;2023-11-19T04:56:22;2.70;99.90
16929;DHT22;8581;47.334;11.190;2023-11-19T04:58:54;2.80;99.90
16929;DHT22;8581;47.334;11.190;2023-11-19T05:01:26;2.80;99.90
16929;DHT22;8581;47.334;11.190;2023-11-19T05:03:57;2.70;99.90
16929;DHT22;8581;47.334;11.190;2023-11-19T05:06:30;2.70;99.90
16929;DHT22;8581;47.334;11.190;2023-11-19T05:09:01;2.70;99.90
16929;DHT22;8581;47.334;11.190;2023-11-19T05:11:33;2.80;99.90
16929;DHT22;8581;47.334;11.190;2023-11-19T05:14:04;2.80;99.90
16929;DHT22;8581;47.334;11.190;2023-11-19T05:16:37;2.70;99.90
16929;DHT22;8581;47.334;11.190;2023-11-19T05:19:07;2.80;99.90
16929;DHT22;8581;47.334;11.190;2023-11-19T05:21:41;2.70;99.90
16929;DHT22;8581;47.334;11.190;2023-11-19T05:24:11;2.80;99.90
16929;DHT22;8581;47.334;11.190;2023-11-19T05:26:43;2.80;99.90
16929;DHT22;8581;47.334;11.190;2023-11-19T05:29:15;2.80;99.90
16929;DHT22;8581;47.334;11.190;2023-11-19T05:31:46;3.00;99.90
16929;DHT22;8581;47.334;11.190;2023-11-19T05:34:18;3.00;99.90
16929;DHT22;8581;47.334;11.190;2023-11-19T05:36:49;3.10;99.90
16929;DHT22;8581;47.334;11.190;2023-11-19T05:39:21;2.90;99.90
16929;DHT22;8581;47.334;11.190;2023-11-19T05:41:52;2.90;99.90
16929;DHT22;8581;47.334;11.190;2023-11-19T05:44:24;3.00;99.90
16929;DHT22;8581;47.334;11.190;2023-11-19T05:46:56;3.00;99.90
16929;DHT22;8581;47.334;11.190;2023-11-19T05:49:27;3.10;99.90
16929;DHT22;8581;47.334;11.190;2023-11-19T05:51:59;3.00;99.90
16929;DHT22;8581;47.334;11.190;2023-11-19T05:54:30;2.90;99.90
16929;DHT22;8581;47.334;11.190;2023-11-19T05:57:02;2.90;99.90
16929;DHT22;8581;47.334;11.190;2023-11-19T05:59:34;2.90;99.90
16929;DHT22;8581;47.334;11.190;2023-11-19T06:02:05;2.90;99.90
16929;DHT22;8581;47.334;11.190;2023-11-19T06:04:37;2.80;99.90
16929;DHT22;8581;47.334;11.190;2023-11-19T06:07:08;2.90;99.90
16929;DHT22;8581;47.334;11.190;2023-11-19T06:09:40;3.00;99.90
16929;DHT22;8581;47.334;11.190;2023-11-19T06:12:12;2.90;99.90
16929;DHT22;8581;47.334;11.190;2023-11-19T06:14:43;2.90;99.90
16929;DHT22;8581;47.334;11.190;2023-11-19T06:17:15;3.10;99.90
16929;DHT22;8581;47.334;11.190;2023-11-19T06:19:46;2.90;99.90
16929;DHT22;8581;47.334;11.190;2023-11-19T06:22:18;3.00;99.90
16929;DHT22;8581;47.334;11.190;2023-11-19T06:24:50;3.00;99.90
16929;DHT22;8581;47.334;11.190;2023-11-19T06:27:21;3.00;99.90
16929;DHT22;8581;47.334;11.190;2023-11-19T06:29:53;3.10;99.90
16929;DHT22;8581;47.334;11.190;2023-11-19T06:32:24;3.00;99.90
16929;DHT22;8581;47.334;11.190;2023-11-19T06:34:56;3.00;99.90
16929;DHT22;8581;47.334;11.190;2023-11-19T06:37:27;3.10;99.90
16929;DHT22;8581;47.334;11.190;2023-11-19T06:39:59;3.10;99.90
16929;DHT22;8581;47.334;11.190;2023-11-19T06:42:31;3.10;99.90
16929;DHT22;8581;47.334;11.190;2023-11-19T06:45:03;3.20;99.90
16929;DHT22;8581;47.334;11.190;2023-11-19T06:47:34;3.10;99.90
16929;DHT22;8581;47.334;11.190;2023-11-19T06:50:07;3.10;99.90
16929;DHT22;8581;47.334;11.190;2023-11-19T06:52:38;3.30;99.90
16929;DHT22;8581;47.334;11.190;2023-11-19T06:55:10;3.40;99.90
16929;DHT22;8581;47.334;11.190;2023-11-19T06:57:42;3.50;99.90
16929;DHT22;8581;47.334;11.190;2023-11-19T07:00:14;3.40;99.90
16929;DHT22;8581;47.334;11.190;2023-11-19T07:02:45;3.30;99.90
16929;DHT22;8581;47.334;11.190;2023-11-19T07:05:17;3.40;99.90
16929;DHT22;8581;47.334;11.190;2023-11-19T07:07:48;3.20;99.90
16929;DHT22;8581;47.334;11.190;2023-11-19T07:10:20;3.30;99.90
16929;DHT22;8581;47.334;11.190;2023-11-19T07:12:52;3.30;99.90
16929;DHT22;8581;47.334;11.190;2023-11-19T07:15:23;3.40;99.90
16929;DHT22;8581;47.334;11.190;2023-11-19T07:17:55;3.40;99.90
16929;DHT22;8581;47.334;11.190;2023-11-19T07:20:26;3.70;99.90
16929;DHT22;8581;47.334;11.190;2023-11-19T07:22:58;3.60;99.90
16929;DHT22;8581;47.334;11.190;2023-11-19T07:25:29;3.50;99.90
16929;DHT22;8581;47.334;11.190;2023-11-19T07:28:01;3.60;99.90
16929;DHT22;8581;47.334;11.190;2023-11-19T07:30:33;3.50;99.90
16929;DHT22;8581;47.334;11.190;2023-11-19T07:33:04;3.50;99.90
16929;DHT22;8581;47.334;11.190;2023-11-19T07:35:36;3.50;99.90
16929;DHT22;8581;47.334;11.190;2023-11-19T07:38:07;3.70;99.90
16929;DHT22;8581;47.334;11.190;2023-11-19T07:40:39;3.60;99.90
16929;DHT22;8581;47.334;11.190;2023-11-19T07:43:11;3.70;99.90
16929;DHT22;8581;47.334;11.190;2023-11-19T07:45:42;3.70;99.90
16929;DHT22;8581;47.334;11.190;2023-11-19T07:48:15;3.80;99.90
16929;DHT22;8581;47.334;11.190;2023-11-19T07:50:46;3.70;99.90
16929;DHT22;8581;47.334;11.190;2023-11-19T07:53:18;3.90;99.90
16929;DHT22;8581;47.334;11.190;2023-11-19T07:55:49;3.90;99.90
16929;DHT22;8581;47.334;11.190;2023-11-19T07:58:21;3.80;99.90
16929;DHT22;8581;47.334;11.190;2023-11-19T08:00:53;3.70;99.90
16929;DHT22;8581;47.334;11.190;2023-11-19T08:03:24;3.80;99.90
16929;DHT22;8581;47.334;11.190;2023-11-19T08:05:56;3.80;99.90
16929;DHT22;8581;47.334;11.190;2023-11-19T08:08:28;3.70;99.90
16929;DHT22;8581;47.334;11.190;2023-11-19T08:11:00;3.90;99.90
16929;DHT22;8581;47.334;11.190;2023-11-19T08:13:32;3.90;99.90
16929;DHT22;8581;47.334;11.190;2023-11-19T08:16:04;4.00;99.90
16929;DHT22;8581;47.334;11.190;2023-11-19T08:18:36;4.00;99.90
16929;DHT22;8581;47.334;11.190;2023-11-19T08:21:08;4.10;99.90
16929;DHT22;8581;47.334;11.190;2023-11-19T08:23:39;4.20;99.90
16929;DHT22;8581;47.334;11.190;2023-11-19T08:26:11;4.40;99.90
16929;DHT22;8581;47.334;11.190;2023-11-19T08:28:42;4.40;99.90
16929;DHT22;8581;47.334;11.190;2023-11-19T08:31:14;4.40;99.90
16929;DHT22;8581;47.334;11.190;2023-11-19T08:33:46;4.40;99.90
16929;DHT22;8581;47.334;11.190;2023-11-19T08:36:17;4.60;99.90
16929;DHT22;8581;47.334;11.190;2023-11-19T08:38:49;4.50;99.90
16929;DHT22;8581;47.334;11.190;2023-11-19T08:41:21;4.70;99.90
16929;DHT22;8581;47.334;11.190;2023-11-19T08:43:52;4.60;99.90
16929;DHT22;8581;47.334;11.190;2023-11-19T08:46:24;4.80;99.90
16929;DHT22;8581;47.334;11.190;2023-11-19T08:48:55;5.20;99.90
16929;DHT22;8581;47.334;11.190;2023-11-19T08:51:27;5.10;99.90
16929;DHT22;8581;47.334;11.190;2023-11-19T08:53:58;5.10;99.90
16929;DHT22;8581;47.334;11.190;2023-11-19T08:56:30;5.40;99.90
16929;DHT22;8581;47.334;11.190;2023-11-19T08:59:02;5.60;99.90
16929;DHT22;8581;47.334;11.190;2023-11-19T09:01:33;5.70;99.90
16929;DHT22;8581;47.334;11.190;2023-11-19T09:04:05;5.50;99.90
16929;DHT22;8581;47.334;11.190;2023-11-19T09:06:37;5.70;99.90
16929;DHT22;8581;47.334;11.190;2023-11-19T09:09:08;5.90;99.90
16929;DHT22;8581;47.334;11.190;2023-11-19T09:11:40;5.80;99.90
16929;DHT22;8581;47.334;11.190;2023-11-19T09:14:11;5.90;99.90
16929;DHT22;8581;47.334;11.190;2023-11-19T09:16:43;5.80;99.90
16929;DHT22;8581;47.334;11.190;2023-11-19T09:19:15;6.00;99.90
16929;DHT22;8581;47.334;11.190;2023-11-19T09:21:46;6.20;99.90
16929;DHT22;8581;47.334;11.190;2023-11-19T09:24:18;6.70;99.90
16929;DHT22;8581;47.334;11.190;2023-11-19T09:26:49;6.80;99.90
16929;DHT22;8581;47.334;11.190;2023-11-19T09:29:21;7.10;99.90
16929;DHT22;8581;47.334;11.190;2023-11-19T09:31:54;7.10;99.90
16929;DHT22;8581;47.334;11.190;2023-11-19T09:34:26;7.00;99.90
16929;DHT22;8581;47.334;11.190;2023-11-19T09:36:58;6.90;99.90
16929;DHT22;8581;47.334;11.190;2023-11-19T09:39:30;6.90;99.90
16929;DHT22;8581;47.334;11.190;2023-11-19T09:42:01;6.80;99.90
16929;DHT22;8581;47.334;11.190;2023-11-19T09:44:33;7.00;99.90
16929;DHT22;8581;47.334;11.190;2023-11-19T09:47:05;7.00;99.90
16929;DHT22;8581;47.334;11.190;2023-11-19T09:49:36;7.30;99.90
16929;DHT22;8581;47.334;11.190;2023-11-19T09:52:08;7.70;99.90
16929;DHT22;8581;47.334;11.190;2023-11-19T09:54:39;8.70;99.90
16929;DHT22;8581;47.334;11.190;2023-11-19T09:57:11;9.50;99.90
16929;DHT22;8581;47.334;11.190;2023-11-19T09:59:43;10.00;99.90
16929;DHT22;8581;47.334;11.190;2023-11-19T10:02:14;10.50;99.90
16929;DHT22;8581;47.334;11.190;2023-11-19T10:04:46;11.20;99.90
16929;DHT22;8581;47.334;11.190;2023-11-19T10:07:17;12.00;99.90
16929;DHT22;8581;47.334;11.190;2023-11-19T10:09:49;12.10;99.90
16929;DHT22;8581;47.334;11.190;2023-11-19T10:12:21;11.90;99.90
16929;DHT22;8581;47.334;11.190;2023-11-19T10:14:53;11.70;99.90
16929;DHT22;8581;47.334;11.190;2023-11-19T10:17:29;11.80;99.90
16929;DHT22;8581;47.334;11.190;2023-11-19T10:20:00;11.90;99.90
16929;DHT22;8581;47.334;11.190;2023-11-19T10:22:36;11.90;99.90
16929;DHT22;8581;47.334;11.190;2023-11-19T10:25:08;12.20;99.90
16929;DHT22;8581;47.334;11.190;2023-11-19T10:27:37;11.80;99.90
16929;DHT22;8581;47.334;11.190;2023-11-19T10:30:10;12.20;99.90
16929;DHT22;8581;47.334;11.190;2023-11-19T10:32:41;11.90;99.90
16929;DHT22;8581;47.334;11.190;2023-11-19T10:35:13;11.60;99.90
16929;DHT22;8581;47.334;11.190;2023-11-19T10:37:45;11.30;99.90
16929;DHT22;8581;47.334;11.190;2023-11-19T10:40:16;11.10;99.90
16929;DHT22;8581;47.334;11.190;2023-11-19T10:42:48;10.50;99.90
16929;DHT22;8581;47.334;11.190;2023-11-19T10:45:22;11.10;99.90
16929;DHT22;8581;47.334;11.190;2023-11-19T10:47:53;11.20;99.90
16929;DHT22;8581;47.334;11.190;2023-11-19T10:50:25;11.40;99.90
16929;DHT22;8581;47.334;11.190;2023-11-19T10:52:56;11.20;99.90
16929;DHT22;8581;47.334;11.190;2023-11-19T10:55:32;10.80;99.90
16929;DHT22;8581;47.334;11.190;2023-11-19T10:58:02;10.80;99.90
16929;DHT22;8581;47.334;11.190;2023-11-19T11:00:37;10.60;99.90
16929;DHT22;8581;47.334;11.190;2023-11-19T11:03:09;10.70;99.90
16929;DHT22;8581;47.334;11.190;2023-11-19T11:05:37;10.50;99.90
16929;DHT22;8581;47.334;11.190;2023-11-19T11:08:09;10.90;99.90
16929;DHT22;8581;47.334;11.190;2023-11-19T11:10:45;11.30;99.90
16929;DHT22;8581;47.334;11.190;2023-11-19T11:13:19;11.00;99.90
16929;DHT22;8581;47.334;11.190;2023-11-19T11:15:51;11.20;99.90
16929;DHT22;8581;47.334;11.190;2023-11-19T11:18:22;11.20;99.90
16929;DHT22;8581;47.334;11.190;2023-11-19T11:20:59;10.80;99.90
16929;DHT22;8581;47.334;11.190;2023-11-19T11:23:55;10.40;99.90
16929;DHT22;8581;47.334;11.190;2023-11-19T11:26:45;10.40;99.90
16929;DHT22;8581;47.334;11.190;2023-11-19T11:29:20;10.30;99.90
16929;DHT22;8581;47.334;11.190;2023-11-19T11:32:03;10.40;99.90
16929;DHT22;8581;47.334;11.190;2023-11-19T11:34:44;10.80;99.90
16929;DHT22;8581;47.334;11.190;2023-11-19T11:39:51;10.70;99.90
16929;DHT22;8581;47.334;11.190;2023-11-19T11:42:37;10.80;99.90
16929;DHT22;8581;47.334;11.190;2023-11-19T11:45:12;10.60;99.90
16929;DHT22;8581;47.334;11.190;2023-11-19T11:48:15;10.70;99.90
16929;DHT22;8581;47.334;11.190;2023-11-19T11:50:51;10.60;99.90
16929;DHT22;8581;47.334;11.190;2023-11-19T11:53:22;11.40;99.90
16929;DHT22;8581;47.334;11.190;2023-11-19T11:55:54;11.90;99.90
16929;DHT22;8581;47.334;11.190;2023-11-19T11:58:27;11.70;99.90
16929;DHT22;8581;47.334;11.190;2023-11-19T12:00:58;12.90;99.90
16929;DHT22;8581;47.334;11.190;2023-11-19T12:03:29;13.30;99.90
16929;DHT22;8581;47.334;11.190;2023-11-19T12:06:01;12.40;99.90
16929;DHT22;8581;47.334;11.190;2023-11-19T12:08:33;12.30;99.90
16929;DHT22;8581;47.334;11.190;2023-11-19T12:11:05;12.00;99.90
16929;DHT22;8581;47.334;11.190;2023-11-19T12:13:46;11.50;99.90
16929;DHT22;8581;47.334;11.190;2023-11-19T12:16:14;11.90;99.90
16929;DHT22;8581;47.334;11.190;2023-11-19T12:18:46;11.40;99.90
16929;DHT22;8581;47.334;11.190;2023-11-19T12:21:29;11.20;99.90
16929;DHT22;8581;47.334;11.190;2023-11-19T12:24:00;11.40;99.90
16929;DHT22;8581;47.334;11.190;2023-11-19T12:26:33;11.50;99.90
16929;DHT22;8581;47.334;11.190;2023-11-19T12:29:05;11.60;99.90
16929;DHT22;8581;47.334;11.190;2023-11-19T12:31:36;12.10;99.90
16929;DHT22;8581;47.334;11.190;2023-11-19T12:34:08;13.90;99.90
16929;DHT22;8581;47.334;11.190;2023-11-19T12:36:39;14.70;99.90
16929;DHT22;8581;47.334;11.190;2023-11-19T12:39:11;14.90;99.90
16929;DHT22;8581;47.334;11.190;2023-11-19T12:41:51;15.10;99.90
16929;DHT22;8581;47.334;11.190;2023-11-19T12:44:23;14.60;99.90
16929;DHT22;8581;47.334;11.190;2023-11-19T12:47:02;13.20;99.90
16929;DHT22;8581;47.334;11.190;2023-11-19T12:49:33;13.10;99.90
16929;DHT22;8581;47.334;11.190;2023-11-19T12:52:11;14.20;99.90
16929;DHT22;8581;47.334;11.190;2023-11-19T12:54:43;14.70;99.90
16929;DHT22;8581;47.334;11.190;2023-11-19T12:57:14;14.40;99.90
16929;DHT22;8581;47.334;11.190;2023-11-19T12:59:55;13.50;99.90
16929;DHT22;8581;47.334;11.190;2023-11-19T13:02:44;12.90;99.90
16929;DHT22;8581;47.334;11.190;2023-11-19T13:04:57;12.80;99.90
16929;DHT22;8581;47.334;11.190;2023-11-19T13:07:29;11.70;99.90
16929;DHT22;8581;47.334;11.190;2023-11-19T13:10:02;11.00;99.90
16929;DHT22;8581;47.334;11.190;2023-11-19T13:12:33;10.90;99.90
16929;DHT22;8581;47.334;11.190;2023-11-19T13:15:05;10.40;99.90
16929;DHT22;8581;47.334;11.190;2023-11-19T13:17:37;10.10;99.90
16929;DHT22;8581;47.334;11.190;2023-11-19T13:20:10;9.70;99.90
16929;DHT22;8581;47.334;11.190;2023-11-19T13:22:53;9.50;99.90
16929;DHT22;8581;47.334;11.190;2023-11-19T13:25:13;9.30;99.90
16929;DHT22;8581;47.334;11.190;2023-11-19T13:27:45;9.20;99.90
16929;DHT22;8581;47.334;11.190;2023-11-19T13:30:17;9.20;99.90
16929;DHT22;8581;47.334;11.190;2023-11-19T13:32:48;9.30;99.90
16929;DHT22;8581;47.334;11.190;2023-11-19T13:35:20;9.30;99.90
16929;DHT22;8581;47.334;11.190;2023-11-19T13:37:51;9.20;99.90
16929;DHT22;8581;47.334;11.190;2023-11-19T13:40:23;9.40;99.90
16929;DHT22;8581;47.334;11.190;2023-11-19T13:42:54;9.50;99.90
16929;DHT22;8581;47.334;11.190;2023-11-19T13:45:26;9.90;99.90
16929;DHT22;8581;47.334;11.190;2023-11-19T13:47:58;10.10;99.90
16929;DHT22;8581;47.334;11.190;2023-11-19T13:50:29;10.30;99.90
16929;DHT22;8581;47.334;11.190;2023-11-19T13:53:01;10.30;99.90
16929;DHT22;8581;47.334;11.190;2023-11-19T13:55:32;10.10;99.90
16929;DHT22;8581;47.334;11.190;2023-11-19T13:58:04;9.90;99.90
16929;DHT22;8581;47.334;11.190;2023-11-19T14:00:36;9.70;99.90
16929;DHT22;8581;47.334;11.190;2023-11-19T14:03:07;9.60;99.90
16929;DHT22;8581;47.334;11.190;2023-11-19T14:05:39;9.50;99.90
16929;DHT22;8581;47.334;11.190;2023-11-19T14:08:10;9.00;99.90
16929;DHT22;8581;47.334;11.190;2023-11-19T14:10:44;8.60;99.90
16929;DHT22;8581;47.334;11.190;2023-11-19T14:13:16;8.50;99.90
16929;DHT22;8581;47.334;11.190;2023-11-19T14:15:48;8.60;99.90
16929;DHT22;8581;47.334;11.190;2023-11-19T14:18:19;8.70;99.90
16929;DHT22;8581;47.334;11.190;2023-11-19T14:20:51;8.70;99.90
16929;DHT22;8581;47.334;11.190;2023-11-19T14:23:23;8.80;99.90
16929;DHT22;8581;47.334;11.190;2023-11-19T14:25:54;9.10;99.90
16929;DHT22;8581;47.334;11.190;2023-11-19T14:28:26;8.80;99.90
16929;DHT22;8581;47.334;11.190;2023-11-19T14:30:57;8.90;99.90
16929;DHT22;8581;47.334;11.190;2023-11-19T14:33:29;9.00;99.90
16929;DHT22;8581;47.334;11.190;2023-11-19T14:36:01;9.00;99.90
16929;DHT22;8581;47.334;11.190;2023-11-19T14:38:32;9.20;99.90
16929;DHT22;8581;47.334;11.190;2023-11-19T14:41:04;9.10;99.90
16929;DHT22;8581;47.334;11.190;2023-11-19T14:43:38;9.00;99.90
16929;DHT22;8581;47.334;11.190;2023-11-19T14:46:08;8.80;99.90
16929;DHT22;8581;47.334;11.190;2023-11-19T14:48:39;8.80;99.90
16929;DHT22;8581;47.334;11.190;2023-11-19T14:51:11;8.50;99.90
16929;DHT22;8581;47.334;11.190;2023-11-19T14:53:43;8.30;99.90
16929;DHT22;8581;47.334;11.190;2023-11-19T14:56:14;8.10;99.90
16929;DHT22;8581;47.334;11.190;2023-11-19T14:58:46;7.90;99.90
16929;DHT22;8581;47.334;11.190;2023-11-19T15:01:17;7.60;99.90
16929;DHT22;8581;47.334;11.190;2023-11-19T15:03:49;7.40;99.90
16929;DHT22;8581;47.334;11.190;2023-11-19T15:06:23;7.40;99.90
16929;DHT22;8581;47.334;11.190;2023-11-19T15:08:54;7.30;99.90
16929;DHT22;8581;47.334;11.190;2023-11-19T15:11:26;7.20;99.90
16929;DHT22;8581;47.334;11.190;2023-11-19T15:13:57;7.10;99.90
16929;DHT22;8581;47.334;11.190;2023-11-19T15:16:29;7.00;99.90
16929;DHT22;8581;47.334;11.190;2023-11-19T15:19:02;7.00;99.90
16929;DHT22;8581;47.334;11.190;2023-11-19T15:21:34;7.00;99.90
16929;DHT22;8581;47.334;11.190;2023-11-19T15:24:07;6.90;99.90
16929;DHT22;8581;47.334;11.190;2023-11-19T15:26:38;6.90;99.90
16929;DHT22;8581;47.334;11.190;2023-11-19T15:29:10;6.90;99.90
16929;DHT22;8581;47.334;11.190;2023-11-19T15:31:42;6.90;99.90
16929;DHT22;8581;47.334;11.190;2023-11-19T15:34:13;6.90;99.90
16929;DHT22;8581;47.334;11.190;2023-11-19T15:36:47;7.00;99.90
16929;DHT22;8581;47.334;11.190;2023-11-19T15:39:20;6.80;99.90
16929;DHT22;8581;47.334;11.190;2023-11-19T15:41:52;6.70;99.90
16929;DHT22;8581;47.334;11.190;2023-11-19T15:44:24;6.70;99.90
16929;DHT22;8581;47.334;11.190;2023-11-19T15:46:56;6.60;99.90
16929;DHT22;8581;47.334;11.190;2023-11-19T15:49:27;6.70;99.90
16929;DHT22;8581;47.334;11.190;2023-11-19T15:51:59;6.60;99.90
16929;DHT22;8581;47.334;11.190;2023-11-19T15:54:31;6.60;99.90
16929;DHT22;8581;47.334;11.190;2023-11-19T15:57:03;6.50;99.90
16929;DHT22;8581;47.334;11.190;2023-11-19T15:59:35;6.40;99.90
16929;DHT22;8581;47.334;11.190;2023-11-19T16:02:07;6.10;99.90
16929;DHT22;8581;47.334;11.190;2023-11-19T16:04:38;6.00;99.90
16929;DHT22;8581;47.334;11.190;2023-11-19T16:07:10;6.10;99.90
16929;DHT22;8581;47.334;11.190;2023-11-19T16:09:42;6.20;99.90
16929;DHT22;8581;47.334;11.190;2023-11-19T16:12:13;6.10;99.90
16929;DHT22;8581;47.334;11.190;2023-11-19T16:14:45;5.90;99.90